sensor_id;sensor_type;location;lat;lon;timestamp;P1;durP1;ratioP1;P2;durP2;ratioP2
81006;SDS011;70472;47.592;17.640;2024-01-07T00:00:29;17.83;;;17.83;;
81006;SDS011;70472;47.592;17.640;2024-01-07T00:01:02;19.60;;;19.60;;
81006;SDS011;70472;47.592;17.640;2024-01-07T00:01:34;18.77;;;18.77;;
81006;SDS011;70472;47.592;17.640;2024-01-07T00:02:07;17.13;;;17.13;;
81006;SDS011;70472;47.592;17.640;2024-01-07T00:02:39;18.67;;;18.67;;
81006;SDS011;70472;47.592;17.640;2024-01-07T00:03:12;18.43;;;18.43;;
81006;SDS011;70472;47.592;17.640;2024-01-07T00:03:44;18.40;;;18.40;;
81006;SDS011;70472;47.592;17.640;2024-01-07T00:04:17;19.53;;;19.53;;
81006;SDS011;70472;47.592;17.640;2024-01-07T00:04:50;19.37;;;19.37;;
81006;SDS011;70472;47.592;17.640;2024-01-07T00:05:23;19.23;;;19.23;;
81006;SDS011;70472;47.592;17.640;2024-01-07T00:05:55;18.80;;;18.80;;
81006;SDS011;70472;47.592;17.640;2024-01-07T00:06:28;17.37;;;17.37;;
81006;SDS011;70472;47.592;17.640;2024-01-07T00:07:00;17.70;;;17.67;;
81006;SDS011;70472;47.592;17.640;2024-01-07T00:07:33;17.77;;;17.77;;
81006;SDS011;70472;47.592;17.640;2024-01-07T00:08:05;18.47;;;18.47;;
81006;SDS011;70472;47.592;17.640;2024-01-07T00:08:38;18.77;;;18.77;;
81006;SDS011;70472;47.592;17.640;2024-01-07T00:09:11;17.93;;;17.93;;
81006;SDS011;70472;47.592;17.640;2024-01-07T00:09:44;18.00;;;18.00;;
81006;SDS011;70472;47.592;17.640;2024-01-07T00:10:16;18.77;;;18.63;;
81006;SDS011;70472;47.592;17.640;2024-01-07T00:10:49;18.13;;;18.07;;
81006;SDS011;70472;47.592;17.640;2024-01-07T00:11:23;17.83;;;17.80;;
81006;SDS011;70472;47.592;17.640;2024-01-07T00:11:56;17.37;;;17.37;;
81006;SDS011;70472;47.592;17.640;2024-01-07T00:12:30;19.47;;;19.47;;
81006;SDS011;70472;47.592;17.640;2024-01-07T00:13:03;19.50;;;19.50;;
81006;SDS011;70472;47.592;17.640;2024-01-07T00:13:36;18.53;;;18.53;;
81006;SDS011;70472;47.592;17.640;2024-01-07T00:14:08;18.20;;;18.20;;
81006;SDS011;70472;47.592;17.640;2024-01-07T00:14:41;18.37;;;18.37;;
81006;SDS011;70472;47.592;17.640;2024-01-07T00:15:13;18.70;;;18.70;;
81006;SDS011;70472;47.592;17.640;2024-01-07T00:15:46;18.90;;;18.90;;
81006;SDS011;70472;47.592;17.640;2024-01-07T00:16:19;18.57;;;18.57;;
81006;SDS011;70472;47.592;17.640;2024-01-07T00:16:51;18.67;;;18.67;;
81006;SDS011;70472;47.592;17.640;2024-01-07T00:17:24;18.70;;;18.70;;
81006;SDS011;70472;47.592;17.640;2024-01-07T00:17:56;18.10;;;18.10;;
81006;SDS011;70472;47.592;17.640;2024-01-07T00:18:29;18.37;;;18.37;;
81006;SDS011;70472;47.592;17.640;2024-01-07T00:19:01;18.43;;;18.43;;
81006;SDS011;70472;47.592;17.640;2024-01-07T00:19:34;18.40;;;18.40;;
81006;SDS011;70472;47.592;17.640;2024-01-07T00:20:07;17.20;;;17.17;;
81006;SDS011;70472;47.592;17.640;2024-01-07T00:20:40;17.70;;;17.70;;
81006;SDS011;70472;47.592;17.640;2024-01-07T00:21:14;18.63;;;18.63;;
81006;SDS011;70472;47.592;17.640;2024-01-07T00:21:46;18.53;;;18.53;;
81006;SDS011;70472;47.592;17.640;2024-01-07T00:22:19;17.80;;;17.80;;
81006;SDS011;70472;47.592;17.640;2024-01-07T00:22:51;17.80;;;17.80;;
81006;SDS011;70472;47.592;17.640;2024-01-07T00:23:24;17.80;;;17.80;;
81006;SDS011;70472;47.592;17.640;2024-01-07T00:23:57;18.63;;;18.63;;
81006;SDS011;70472;47.592;17.640;2024-01-07T00:24:29;18.67;;;18.67;;
81006;SDS011;70472;47.592;17.640;2024-01-07T00:25:02;18.30;;;18.30;;
81006;SDS011;70472;47.592;17.640;2024-01-07T00:25:34;17.10;;;17.10;;
81006;SDS011;70472;47.592;17.640;2024-01-07T00:26:07;18.50;;;18.50;;
81006;SDS011;70472;47.592;17.640;2024-01-07T00:26:41;18.50;;;18.50;;
81006;SDS011;70472;47.592;17.640;2024-01-07T00:27:13;18.47;;;18.47;;
81006;SDS011;70472;47.592;17.640;2024-01-07T00:27:46;17.47;;;17.47;;
81006;SDS011;70472;47.592;17.640;2024-01-07T00:28:18;18.27;;;18.23;;
81006;SDS011;70472;47.592;17.640;2024-01-07T00:28:51;17.90;;;17.90;;
81006;SDS011;70472;47.592;17.640;2024-01-07T00:29:23;17.40;;;17.40;;
81006;SDS011;70472;47.592;17.640;2024-01-07T00:29:56;18.53;;;18.53;;
81006;SDS011;70472;47.592;17.640;2024-01-07T00:30:29;17.77;;;17.77;;
81006;SDS011;70472;47.592;17.640;2024-01-07T00:31:01;18.67;;;18.67;;
81006;SDS011;70472;47.592;17.640;2024-01-07T00:31:34;16.63;;;16.63;;
81006;SDS011;70472;47.592;17.640;2024-01-07T00:32:06;16.70;;;16.70;;
81006;SDS011;70472;47.592;17.640;2024-01-07T00:32:39;17.03;;;17.03;;
81006;SDS011;70472;47.592;17.640;2024-01-07T00:33:12;18.53;;;18.53;;
81006;SDS011;70472;47.592;17.640;2024-01-07T00:33:44;18.50;;;18.50;;
81006;SDS011;70472;47.592;17.640;2024-01-07T00:34:17;18.30;;;18.30;;
81006;SDS011;70472;47.592;17.640;2024-01-07T00:34:50;18.33;;;18.30;;
81006;SDS011;70472;47.592;17.640;2024-01-07T00:35:25;17.57;;;17.57;;
81006;SDS011;70472;47.592;17.640;2024-01-07T00:35:57;16.70;;;16.70;;
81006;SDS011;70472;47.592;17.640;2024-01-07T00:36:30;16.43;;;16.43;;
81006;SDS011;70472;47.592;17.640;2024-01-07T00:37:02;16.57;;;16.57;;
81006;SDS011;70472;47.592;17.640;2024-01-07T00:37:35;17.80;;;17.80;;
81006;SDS011;70472;47.592;17.640;2024-01-07T00:38:08;17.83;;;17.83;;
81006;SDS011;70472;47.592;17.640;2024-01-07T00:38:40;17.70;;;17.70;;
81006;SDS011;70472;47.592;17.640;2024-01-07T00:39:13;18.73;;;18.73;;
81006;SDS011;70472;47.592;17.640;2024-01-07T00:39:45;18.30;;;18.30;;
81006;SDS011;70472;47.592;17.640;2024-01-07T00:40:18;18.23;;;18.23;;
81006;SDS011;70472;47.592;17.640;2024-01-07T00:40:50;17.77;;;17.77;;
81006;SDS011;70472;47.592;17.640;2024-01-07T00:41:23;17.83;;;17.83;;
81006;SDS011;70472;47.592;17.640;2024-01-07T00:41:56;18.10;;;18.10;;
81006;SDS011;70472;47.592;17.640;2024-01-07T00:42:28;17.43;;;17.43;;
81006;SDS011;70472;47.592;17.640;2024-01-07T00:43:01;17.83;;;17.83;;
81006;SDS011;70472;47.592;17.640;2024-01-07T00:43:33;18.33;;;18.33;;
81006;SDS011;70472;47.592;17.640;2024-01-07T00:44:06;17.87;;;17.87;;
81006;SDS011;70472;47.592;17.640;2024-01-07T00:44:38;17.43;;;17.43;;
81006;SDS011;70472;47.592;17.640;2024-01-07T00:45:11;17.63;;;17.63;;
81006;SDS011;70472;47.592;17.640;2024-01-07T00:45:43;17.17;;;17.17;;
81006;SDS011;70472;47.592;17.640;2024-01-07T00:46:17;17.33;;;17.33;;
81006;SDS011;70472;47.592;17.640;2024-01-07T00:46:50;17.60;;;17.60;;
81006;SDS011;70472;47.592;17.640;2024-01-07T00:47:22;17.70;;;17.70;;
81006;SDS011;70472;47.592;17.640;2024-01-07T00:47:55;17.90;;;17.90;;
81006;SDS011;70472;47.592;17.640;2024-01-07T00:48:27;18.07;;;18.07;;
81006;SDS011;70472;47.592;17.640;2024-01-07T00:49:00;18.17;;;18.17;;
81006;SDS011;70472;47.592;17.640;2024-01-07T00:49:33;17.57;;;17.57;;
81006;SDS011;70472;47.592;17.640;2024-01-07T00:50:05;17.03;;;17.03;;
81006;SDS011;70472;47.592;17.640;2024-01-07T00:50:38;17.37;;;17.37;;
81006;SDS011;70472;47.592;17.640;2024-01-07T00:51:11;18.93;;;18.93;;
81006;SDS011;70472;47.592;17.640;2024-01-07T00:51:43;19.10;;;19.10;;
81006;SDS011;70472;47.592;17.640;2024-01-07T00:52:16;18.90;;;18.90;;
81006;SDS011;70472;47.592;17.640;2024-01-07T00:52:48;19.40;;;19.40;;
81006;SDS011;70472;47.592;17.640;2024-01-07T00:53:21;18.90;;;18.90;;
81006;SDS011;70472;47.592;17.640;2024-01-07T00:53:53;17.47;;;17.47;;
81006;SDS011;70472;47.592;17.640;2024-01-07T00:54:26;17.80;;;17.80;;
81006;SDS011;70472;47.592;17.640;2024-01-07T00:54:58;18.07;;;18.07;;
81006;SDS011;70472;47.592;17.640;2024-01-07T00:55:31;20.17;;;20.17;;
81006;SDS011;70472;47.592;17.640;2024-01-07T00:56:04;19.10;;;19.10;;
81006;SDS011;70472;47.592;17.640;2024-01-07T00:56:38;19.00;;;19.00;;
81006;SDS011;70472;47.592;17.640;2024-01-07T00:57:10;17.87;;;17.87;;
81006;SDS011;70472;47.592;17.640;2024-01-07T00:57:43;17.90;;;17.90;;
81006;SDS011;70472;47.592;17.640;2024-01-07T00:58:15;18.07;;;18.07;;
81006;SDS011;70472;47.592;17.640;2024-01-07T00:58:48;19.07;;;19.07;;
81006;SDS011;70472;47.592;17.640;2024-01-07T00:59:22;18.23;;;18.23;;
81006;SDS011;70472;47.592;17.640;2024-01-07T00:59:54;17.87;;;17.87;;
81006;SDS011;70472;47.592;17.640;2024-01-07T01:00:27;17.40;;;17.40;;
81006;SDS011;70472;47.592;17.640;2024-01-07T01:00:59;18.20;;;18.20;;
81006;SDS011;70472;47.592;17.640;2024-01-07T01:01:32;17.83;;;17.83;;
81006;SDS011;70472;47.592;17.640;2024-01-07T01:02:04;17.47;;;17.47;;
81006;SDS011;70472;47.592;17.640;2024-01-07T01:02:37;17.07;;;17.07;;
81006;SDS011;70472;47.592;17.640;2024-01-07T01:03:09;18.13;;;18.13;;
81006;SDS011;70472;47.592;17.640;2024-01-07T01:03:42;19.57;;;19.57;;
81006;SDS011;70472;47.592;17.640;2024-01-07T01:04:15;18.17;;;18.17;;
81006;SDS011;70472;47.592;17.640;2024-01-07T01:04:47;17.87;;;17.87;;
81006;SDS011;70472;47.592;17.640;2024-01-07T01:05:20;17.13;;;17.13;;
81006;SDS011;70472;47.592;17.640;2024-01-07T01:05:52;17.33;;;17.27;;
81006;SDS011;70472;47.592;17.640;2024-01-07T01:06:25;17.60;;;17.60;;
81006;SDS011;70472;47.592;17.640;2024-01-07T01:06:57;17.10;;;17.10;;
81006;SDS011;70472;47.592;17.640;2024-01-07T01:07:30;17.67;;;17.67;;
81006;SDS011;70472;47.592;17.640;2024-01-07T01:08:02;17.97;;;17.97;;
81006;SDS011;70472;47.592;17.640;2024-01-07T01:08:35;17.33;;;17.33;;
81006;SDS011;70472;47.592;17.640;2024-01-07T01:09:08;17.50;;;17.50;;
81006;SDS011;70472;47.592;17.640;2024-01-07T01:09:40;17.20;;;17.20;;
81006;SDS011;70472;47.592;17.640;2024-01-07T01:10:13;16.67;;;16.67;;
81006;SDS011;70472;47.592;17.640;2024-01-07T01:10:46;17.50;;;17.50;;
81006;SDS011;70472;47.592;17.640;2024-01-07T01:11:18;18.77;;;18.77;;
81006;SDS011;70472;47.592;17.640;2024-01-07T01:11:52;17.43;;;17.43;;
81006;SDS011;70472;47.592;17.640;2024-01-07T01:12:24;16.93;;;16.93;;
81006;SDS011;70472;47.592;17.640;2024-01-07T01:12:57;17.37;;;17.37;;
81006;SDS011;70472;47.592;17.640;2024-01-07T01:13:29;17.57;;;17.57;;
81006;SDS011;70472;47.592;17.640;2024-01-07T01:14:02;17.00;;;17.00;;
81006;SDS011;70472;47.592;17.640;2024-01-07T01:14:34;18.23;;;18.23;;
81006;SDS011;70472;47.592;17.640;2024-01-07T01:15:07;18.63;;;18.63;;
81006;SDS011;70472;47.592;17.640;2024-01-07T01:15:40;18.00;;;18.00;;
81006;SDS011;70472;47.592;17.640;2024-01-07T01:16:13;18.83;;;18.83;;
81006;SDS011;70472;47.592;17.640;2024-01-07T01:16:45;18.50;;;18.50;;
81006;SDS011;70472;47.592;17.640;2024-01-07T01:17:18;18.83;;;18.83;;
81006;SDS011;70472;47.592;17.640;2024-01-07T01:17:50;17.43;;;17.43;;
81006;SDS011;70472;47.592;17.640;2024-01-07T01:18:23;18.10;;;18.10;;
81006;SDS011;70472;47.592;17.640;2024-01-07T01:18:55;17.43;;;17.43;;
81006;SDS011;70472;47.592;17.640;2024-01-07T01:19:28;17.57;;;17.57;;
81006;SDS011;70472;47.592;17.640;2024-01-07T01:20:00;17.70;;;17.70;;
81006;SDS011;70472;47.592;17.640;2024-01-07T01:20:33;18.03;;;18.03;;
81006;SDS011;70472;47.592;17.640;2024-01-07T01:21:06;17.97;;;17.97;;
81006;SDS011;70472;47.592;17.640;2024-01-07T01:21:38;17.63;;;17.63;;
81006;SDS011;70472;47.592;17.640;2024-01-07T01:22:11;17.40;;;17.33;;
81006;SDS011;70472;47.592;17.640;2024-01-07T01:22:43;17.43;;;17.43;;
81006;SDS011;70472;47.592;17.640;2024-01-07T01:23:16;17.17;;;17.17;;
81006;SDS011;70472;47.592;17.640;2024-01-07T01:23:48;17.00;;;17.00;;
81006;SDS011;70472;47.592;17.640;2024-01-07T01:24:21;18.07;;;18.07;;
81006;SDS011;70472;47.592;17.640;2024-01-07T01:24:53;18.07;;;18.07;;
81006;SDS011;70472;47.592;17.640;2024-01-07T01:25:26;17.73;;;17.73;;
81006;SDS011;70472;47.592;17.640;2024-01-07T01:25:58;17.27;;;17.27;;
81006;SDS011;70472;47.592;17.640;2024-01-07T01:26:31;18.10;;;18.10;;
81006;SDS011;70472;47.592;17.640;2024-01-07T01:27:04;17.37;;;17.37;;
81006;SDS011;70472;47.592;17.640;2024-01-07T01:27:36;16.93;;;16.93;;
81006;SDS011;70472;47.592;17.640;2024-01-07T01:28:09;17.50;;;17.50;;
81006;SDS011;70472;47.592;17.640;2024-01-07T01:28:42;17.83;;;17.83;;
81006;SDS011;70472;47.592;17.640;2024-01-07T01:29:15;17.63;;;17.63;;
81006;SDS011;70472;47.592;17.640;2024-01-07T01:29:47;17.80;;;17.80;;
81006;SDS011;70472;47.592;17.640;2024-01-07T01:30:20;17.40;;;17.40;;
81006;SDS011;70472;47.592;17.640;2024-01-07T01:30:52;17.33;;;17.33;;
81006;SDS011;70472;47.592;17.640;2024-01-07T01:31:25;17.63;;;17.63;;
81006;SDS011;70472;47.592;17.640;2024-01-07T01:31:58;17.87;;;17.87;;
81006;SDS011;70472;47.592;17.640;2024-01-07T01:32:30;17.80;;;17.80;;
81006;SDS011;70472;47.592;17.640;2024-01-07T01:33:03;18.20;;;18.20;;
81006;SDS011;70472;47.592;17.640;2024-01-07T01:33:35;17.97;;;17.97;;
81006;SDS011;70472;47.592;17.640;2024-01-07T01:34:08;18.17;;;18.17;;
81006;SDS011;70472;47.592;17.640;2024-01-07T01:34:40;16.80;;;16.80;;
81006;SDS011;70472;47.592;17.640;2024-01-07T01:35:13;17.00;;;17.00;;
81006;SDS011;70472;47.592;17.640;2024-01-07T01:35:46;16.57;;;16.57;;
81006;SDS011;70472;47.592;17.640;2024-01-07T01:36:18;16.97;;;16.97;;
81006;SDS011;70472;47.592;17.640;2024-01-07T01:36:52;17.43;;;17.43;;
81006;SDS011;70472;47.592;17.640;2024-01-07T01:37:24;15.67;;;15.67;;
81006;SDS011;70472;47.592;17.640;2024-01-07T01:37:57;17.33;;;17.33;;
81006;SDS011;70472;47.592;17.640;2024-01-07T01:38:29;17.53;;;17.50;;
81006;SDS011;70472;47.592;17.640;2024-01-07T01:39:02;17.97;;;17.97;;
81006;SDS011;70472;47.592;17.640;2024-01-07T01:39:34;18.07;;;18.07;;
81006;SDS011;70472;47.592;17.640;2024-01-07T01:40:07;18.20;;;18.20;;
81006;SDS011;70472;47.592;17.640;2024-01-07T01:40:40;17.97;;;17.97;;
81006;SDS011;70472;47.592;17.640;2024-01-07T01:41:13;17.13;;;17.13;;
81006;SDS011;70472;47.592;17.640;2024-01-07T01:41:46;16.90;;;16.90;;
81006;SDS011;70472;47.592;17.640;2024-01-07T01:42:18;17.57;;;17.57;;
81006;SDS011;70472;47.592;17.640;2024-01-07T01:42:51;18.53;;;18.53;;
81006;SDS011;70472;47.592;17.640;2024-01-07T01:43:24;18.50;;;18.50;;
81006;SDS011;70472;47.592;17.640;2024-01-07T01:44:00;17.87;;;17.87;;
81006;SDS011;70472;47.592;17.640;2024-01-07T01:44:33;16.90;;;16.90;;
81006;SDS011;70472;47.592;17.640;2024-01-07T01:45:06;17.53;;;17.53;;
81006;SDS011;70472;47.592;17.640;2024-01-07T01:45:39;18.57;;;18.57;;
81006;SDS011;70472;47.592;17.640;2024-01-07T01:46:11;17.77;;;17.77;;
81006;SDS011;70472;47.592;17.640;2024-01-07T01:46:46;16.87;;;16.87;;
81006;SDS011;70472;47.592;17.640;2024-01-07T01:47:19;17.57;;;17.57;;
81006;SDS011;70472;47.592;17.640;2024-01-07T01:47:52;17.90;;;17.90;;
81006;SDS011;70472;47.592;17.640;2024-01-07T01:48:25;16.67;;;16.67;;
81006;SDS011;70472;47.592;17.640;2024-01-07T01:48:59;17.33;;;17.17;;
81006;SDS011;70472;47.592;17.640;2024-01-07T01:49:33;17.47;;;17.23;;
81006;SDS011;70472;47.592;17.640;2024-01-07T01:50:07;16.80;;;16.63;;
81006;SDS011;70472;47.592;17.640;2024-01-07T01:50:40;16.97;;;16.97;;
81006;SDS011;70472;47.592;17.640;2024-01-07T01:51:13;16.87;;;16.87;;
81006;SDS011;70472;47.592;17.640;2024-01-07T01:51:45;17.17;;;17.17;;
81006;SDS011;70472;47.592;17.640;2024-01-07T01:52:18;16.83;;;16.83;;
81006;SDS011;70472;47.592;17.640;2024-01-07T01:52:52;17.00;;;17.00;;
81006;SDS011;70472;47.592;17.640;2024-01-07T01:53:26;16.40;;;16.40;;
81006;SDS011;70472;47.592;17.640;2024-01-07T01:53:59;17.03;;;17.03;;
81006;SDS011;70472;47.592;17.640;2024-01-07T01:54:32;16.87;;;16.87;;
81006;SDS011;70472;47.592;17.640;2024-01-07T01:55:06;16.33;;;16.33;;
81006;SDS011;70472;47.592;17.640;2024-01-07T01:55:39;16.90;;;16.90;;
81006;SDS011;70472;47.592;17.640;2024-01-07T01:56:12;16.03;;;16.03;;
81006;SDS011;70472;47.592;17.640;2024-01-07T01:56:48;16.70;;;16.70;;
81006;SDS011;70472;47.592;17.640;2024-01-07T01:57:21;16.83;;;16.83;;
81006;SDS011;70472;47.592;17.640;2024-01-07T01:57:56;15.70;;;15.70;;
81006;SDS011;70472;47.592;17.640;2024-01-07T01:58:30;16.80;;;16.80;;
81006;SDS011;70472;47.592;17.640;2024-01-07T01:59:04;17.37;;;17.37;;
81006;SDS011;70472;47.592;17.640;2024-01-07T01:59:37;17.40;;;17.40;;
81006;SDS011;70472;47.592;17.640;2024-01-07T02:00:09;16.47;;;16.47;;
81006;SDS011;70472;47.592;17.640;2024-01-07T02:00:43;16.27;;;16.23;;
81006;SDS011;70472;47.592;17.640;2024-01-07T02:01:17;16.20;;;16.20;;
81006;SDS011;70472;47.592;17.640;2024-01-07T02:01:49;16.37;;;16.37;;
81006;SDS011;70472;47.592;17.640;2024-01-07T02:02:22;16.50;;;16.50;;
81006;SDS011;70472;47.592;17.640;2024-01-07T02:02:55;16.80;;;16.80;;
81006;SDS011;70472;47.592;17.640;2024-01-07T02:03:28;16.83;;;16.83;;
81006;SDS011;70472;47.592;17.640;2024-01-07T02:04:00;16.40;;;16.40;;
81006;SDS011;70472;47.592;17.640;2024-01-07T02:04:33;16.30;;;16.30;;
81006;SDS011;70472;47.592;17.640;2024-01-07T02:05:06;17.17;;;17.17;;
81006;SDS011;70472;47.592;17.640;2024-01-07T02:05:39;16.17;;;16.17;;
81006;SDS011;70472;47.592;17.640;2024-01-07T02:06:12;15.77;;;15.77;;
81006;SDS011;70472;47.592;17.640;2024-01-07T02:06:45;16.93;;;16.93;;
81006;SDS011;70472;47.592;17.640;2024-01-07T02:07:17;15.57;;;15.57;;
81006;SDS011;70472;47.592;17.640;2024-01-07T02:07:50;16.60;;;16.60;;
81006;SDS011;70472;47.592;17.640;2024-01-07T02:08:23;16.10;;;16.10;;
81006;SDS011;70472;47.592;17.640;2024-01-07T02:08:56;16.03;;;16.03;;
81006;SDS011;70472;47.592;17.640;2024-01-07T02:09:29;16.17;;;16.17;;
81006;SDS011;70472;47.592;17.640;2024-01-07T02:10:02;16.93;;;16.93;;
81006;SDS011;70472;47.592;17.640;2024-01-07T02:10:35;16.00;;;16.00;;
81006;SDS011;70472;47.592;17.640;2024-01-07T02:11:14;15.53;;;15.53;;
81006;SDS011;70472;47.592;17.640;2024-01-07T02:12:00;16.13;;;16.13;;
81006;SDS011;70472;47.592;17.640;2024-01-07T02:12:37;16.30;;;16.30;;
81006;SDS011;70472;47.592;17.640;2024-01-07T02:13:10;15.83;;;15.83;;
81006;SDS011;70472;47.592;17.640;2024-01-07T02:13:43;15.67;;;15.63;;
81006;SDS011;70472;47.592;17.640;2024-01-07T02:14:16;15.30;;;15.30;;
81006;SDS011;70472;47.592;17.640;2024-01-07T02:14:48;16.03;;;16.03;;
81006;SDS011;70472;47.592;17.640;2024-01-07T02:15:21;15.93;;;15.93;;
81006;SDS011;70472;47.592;17.640;2024-01-07T02:15:53;16.17;;;16.17;;
81006;SDS011;70472;47.592;17.640;2024-01-07T02:16:26;16.23;;;16.23;;
81006;SDS011;70472;47.592;17.640;2024-01-07T02:16:59;15.13;;;15.13;;
81006;SDS011;70472;47.592;17.640;2024-01-07T02:17:31;15.53;;;15.53;;
81006;SDS011;70472;47.592;17.640;2024-01-07T02:18:04;15.77;;;15.77;;
81006;SDS011;70472;47.592;17.640;2024-01-07T02:18:38;15.17;;;15.17;;
81006;SDS011;70472;47.592;17.640;2024-01-07T02:19:14;15.63;;;15.63;;
81006;SDS011;70472;47.592;17.640;2024-01-07T02:19:46;16.50;;;16.50;;
81006;SDS011;70472;47.592;17.640;2024-01-07T02:20:19;16.37;;;16.37;;
81006;SDS011;70472;47.592;17.640;2024-01-07T02:20:52;15.30;;;15.30;;
81006;SDS011;70472;47.592;17.640;2024-01-07T02:21:25;15.67;;;15.67;;
81006;SDS011;70472;47.592;17.640;2024-01-07T02:21:57;16.93;;;16.93;;
81006;SDS011;70472;47.592;17.640;2024-01-07T02:22:30;15.17;;;15.17;;
81006;SDS011;70472;47.592;17.640;2024-01-07T02:23:03;15.23;;;15.23;;
81006;SDS011;70472;47.592;17.640;2024-01-07T02:23:36;14.97;;;14.97;;
81006;SDS011;70472;47.592;17.640;2024-01-07T02:24:14;14.67;;;14.67;;
81006;SDS011;70472;47.592;17.640;2024-01-07T02:24:47;15.60;;;15.60;;
81006;SDS011;70472;47.592;17.640;2024-01-07T02:25:20;15.07;;;15.07;;
81006;SDS011;70472;47.592;17.640;2024-01-07T02:25:52;15.07;;;15.07;;
81006;SDS011;70472;47.592;17.640;2024-01-07T02:26:25;15.63;;;15.63;;
81006;SDS011;70472;47.592;17.640;2024-01-07T02:26:57;14.73;;;14.73;;
81006;SDS011;70472;47.592;17.640;2024-01-07T02:27:30;14.30;;;14.30;;
81006;SDS011;70472;47.592;17.640;2024-01-07T02:28:03;14.83;;;14.83;;
81006;SDS011;70472;47.592;17.640;2024-01-07T02:28:36;15.17;;;15.17;;
81006;SDS011;70472;47.592;17.640;2024-01-07T02:29:09;15.83;;;15.83;;
81006;SDS011;70472;47.592;17.640;2024-01-07T02:29:41;15.87;;;15.87;;
81006;SDS011;70472;47.592;17.640;2024-01-07T02:30:14;15.10;;;15.10;;
81006;SDS011;70472;47.592;17.640;2024-01-07T02:30:46;15.37;;;15.37;;
81006;SDS011;70472;47.592;17.640;2024-01-07T02:31:19;14.03;;;14.03;;
81006;SDS011;70472;47.592;17.640;2024-01-07T02:31:51;14.87;;;14.87;;
81006;SDS011;70472;47.592;17.640;2024-01-07T02:32:24;15.47;;;15.47;;
81006;SDS011;70472;47.592;17.640;2024-01-07T02:33:00;14.43;;;14.43;;
81006;SDS011;70472;47.592;17.640;2024-01-07T02:33:34;14.83;;;14.83;;
81006;SDS011;70472;47.592;17.640;2024-01-07T02:34:08;14.83;;;14.83;;
81006;SDS011;70472;47.592;17.640;2024-01-07T02:34:41;14.93;;;14.93;;
81006;SDS011;70472;47.592;17.640;2024-01-07T02:35:14;14.30;;;14.30;;
81006;SDS011;70472;47.592;17.640;2024-01-07T02:35:46;13.83;;;13.83;;
81006;SDS011;70472;47.592;17.640;2024-01-07T02:36:19;14.13;;;14.13;;
81006;SDS011;70472;47.592;17.640;2024-01-07T02:36:52;14.40;;;14.40;;
81006;SDS011;70472;47.592;17.640;2024-01-07T02:37:24;14.13;;;14.13;;
81006;SDS011;70472;47.592;17.640;2024-01-07T02:37:57;14.20;;;14.20;;
81006;SDS011;70472;47.592;17.640;2024-01-07T02:38:29;13.70;;;13.70;;
81006;SDS011;70472;47.592;17.640;2024-01-07T02:39:02;13.23;;;13.23;;
81006;SDS011;70472;47.592;17.640;2024-01-07T02:39:35;13.33;;;13.33;;
81006;SDS011;70472;47.592;17.640;2024-01-07T02:40:07;13.30;;;13.30;;
81006;SDS011;70472;47.592;17.640;2024-01-07T02:40:41;14.27;;;14.27;;
81006;SDS011;70472;47.592;17.640;2024-01-07T02:41:13;14.17;;;14.17;;
81006;SDS011;70472;47.592;17.640;2024-01-07T02:41:46;15.23;;;15.23;;
81006;SDS011;70472;47.592;17.640;2024-01-07T02:42:19;13.80;;;13.80;;
81006;SDS011;70472;47.592;17.640;2024-01-07T02:42:51;13.33;;;13.33;;
81006;SDS011;70472;47.592;17.640;2024-01-07T02:43:23;13.33;;;13.33;;
81006;SDS011;70472;47.592;17.640;2024-01-07T02:43:56;13.73;;;13.73;;
81006;SDS011;70472;47.592;17.640;2024-01-07T02:44:28;13.57;;;13.57;;
81006;SDS011;70472;47.592;17.640;2024-01-07T02:45:01;13.70;;;13.70;;
81006;SDS011;70472;47.592;17.640;2024-01-07T02:45:33;13.67;;;13.67;;
81006;SDS011;70472;47.592;17.640;2024-01-07T02:46:06;13.43;;;13.43;;
81006;SDS011;70472;47.592;17.640;2024-01-07T02:46:39;13.90;;;13.90;;
81006;SDS011;70472;47.592;17.640;2024-01-07T02:47:12;14.80;;;14.80;;
81006;SDS011;70472;47.592;17.640;2024-01-07T02:47:44;14.20;;;14.20;;
81006;SDS011;70472;47.592;17.640;2024-01-07T02:48:17;14.10;;;14.10;;
81006;SDS011;70472;47.592;17.640;2024-01-07T02:48:49;13.07;;;13.07;;
81006;SDS011;70472;47.592;17.640;2024-01-07T02:49:22;12.93;;;12.93;;
81006;SDS011;70472;47.592;17.640;2024-01-07T02:49:54;12.77;;;12.77;;
81006;SDS011;70472;47.592;17.640;2024-01-07T02:50:27;12.53;;;12.53;;
81006;SDS011;70472;47.592;17.640;2024-01-07T02:51:00;13.13;;;13.13;;
81006;SDS011;70472;47.592;17.640;2024-01-07T02:51:33;12.83;;;12.83;;
81006;SDS011;70472;47.592;17.640;2024-01-07T02:52:05;12.17;;;12.17;;
81006;SDS011;70472;47.592;17.640;2024-01-07T02:52:38;13.23;;;13.23;;
81006;SDS011;70472;47.592;17.640;2024-01-07T02:53:10;12.67;;;12.67;;
81006;SDS011;70472;47.592;17.640;2024-01-07T02:53:43;12.93;;;12.93;;
81006;SDS011;70472;47.592;17.640;2024-01-07T02:54:15;13.73;;;13.73;;
81006;SDS011;70472;47.592;17.640;2024-01-07T02:54:48;13.50;;;13.50;;
81006;SDS011;70472;47.592;17.640;2024-01-07T02:55:20;12.07;;;12.07;;
81006;SDS011;70472;47.592;17.640;2024-01-07T02:55:53;12.47;;;12.47;;
81006;SDS011;70472;47.592;17.640;2024-01-07T02:56:26;13.20;;;13.20;;
81006;SDS011;70472;47.592;17.640;2024-01-07T02:56:58;12.53;;;12.53;;
81006;SDS011;70472;47.592;17.640;2024-01-07T02:57:31;13.40;;;13.40;;
81006;SDS011;70472;47.592;17.640;2024-01-07T02:58:03;13.30;;;13.30;;
81006;SDS011;70472;47.592;17.640;2024-01-07T02:58:36;13.13;;;13.13;;
81006;SDS011;70472;47.592;17.640;2024-01-07T02:59:09;13.13;;;13.13;;
81006;SDS011;70472;47.592;17.640;2024-01-07T02:59:43;12.77;;;12.77;;
81006;SDS011;70472;47.592;17.640;2024-01-07T03:00:15;13.27;;;13.27;;
81006;SDS011;70472;47.592;17.640;2024-01-07T03:00:48;12.10;;;12.10;;
81006;SDS011;70472;47.592;17.640;2024-01-07T03:01:23;13.10;;;13.10;;
81006;SDS011;70472;47.592;17.640;2024-01-07T03:01:56;11.97;;;11.97;;
81006;SDS011;70472;47.592;17.640;2024-01-07T03:02:28;12.33;;;12.33;;
81006;SDS011;70472;47.592;17.640;2024-01-07T03:03:00;12.73;;;12.73;;
81006;SDS011;70472;47.592;17.640;2024-01-07T03:03:33;13.20;;;13.20;;
81006;SDS011;70472;47.592;17.640;2024-01-07T03:04:06;12.50;;;12.50;;
81006;SDS011;70472;47.592;17.640;2024-01-07T03:04:42;12.93;;;12.93;;
81006;SDS011;70472;47.592;17.640;2024-01-07T03:05:15;12.10;;;12.10;;
81006;SDS011;70472;47.592;17.640;2024-01-07T03:05:48;12.63;;;12.63;;
81006;SDS011;70472;47.592;17.640;2024-01-07T03:06:20;12.73;;;12.73;;
81006;SDS011;70472;47.592;17.640;2024-01-07T03:06:53;12.30;;;12.30;;
81006;SDS011;70472;47.592;17.640;2024-01-07T03:07:25;12.83;;;12.83;;
81006;SDS011;70472;47.592;17.640;2024-01-07T03:07:58;12.80;;;12.80;;
81006;SDS011;70472;47.592;17.640;2024-01-07T03:08:31;11.77;;;11.77;;
81006;SDS011;70472;47.592;17.640;2024-01-07T03:09:04;11.63;;;11.63;;
81006;SDS011;70472;47.592;17.640;2024-01-07T03:09:36;11.57;;;11.57;;